This demonstration page uses our WeatherBlox Daily Observations layout. Learn more.

Left ArrowRight Arrow

34.74481, -87.66753

Hourly Observations for July 1, 2019

Temp ( °F °C ) Dew Point ( °F °C ) Humidity (%) Winds ( mph kmh ) Pressure ( in mb ) Visibility ( mi km ) Precip ( " mm )
1:56 am 01:56 Clear 70 21.1 69 20.6 97 97 Calm 28.28 958 8 13 0.00 0.00
2:56 am 02:56 Clear 69 20.6 69 20.6 100 100 SSW 5 7 28.22 956 9 14 0.00 0.00
3:56 am 03:56 Clear with Mist and Fog 69 20.6 69 20.6 100 100 Calm 28.18 954 3 5 0.00 0.00
4:56 am 04:56 Clear with Mist and Fog 69 20.6 68 20 96 96 Calm 28.17 954 6 10 0.00 0.00
5:56 am 05:56 Sunny 69 20.6 68 20 96 96 Calm 28.20 955 8 13 0.00 0.00
6:56 am 06:56 Sunny 73 22.8 70 21.1 90 90 VRB 3 6 28.25 957 10 16 0.00 0.00
7:56 am 07:56 Sunny 77 25 72 22.2 85 85 WSW 5 7 28.26 957 10 16 0.00 0.00
8:56 am 08:56 Sunny 81 27.2 73 22.8 77 77 VRB 3 6 28.27 957 10 16 0.00 0.00
9:56 am 09:56 Mostly Sunny 84 28.9 73 22.8 70 70 NNW 7 11 28.26 957 10 16 0.00 0.00
10:56 am 10:56 Partly Cloudy 85 29.4 72 22.2 65 65 NW 6 9 28.25 957 10 16 0.00 0.00
11:56 am 11:56 Mostly Sunny 88 31.1 71 21.7 57 57 NNW 9 15 28.22 956 10 16 0.00 0.00
12:56 pm 12:56 Mostly Cloudy 88 31.1 71 21.7 57 57 N 9 15 28.22 956 10 16 0.00 0.00
1:56 pm 13:56 Mostly Cloudy 89 31.7 71 21.7 55 55 N 5 7 28.18 954 10 16 0.00 0.00
2:56 pm 14:56 Mostly Sunny 92 33.3 67 19.4 44 44 VRB 3 6 28.15 953 10 16 0.00 0.00
3:56 pm 15:56 Sunny 92 33.3 66 18.9 43 43 N 3 6 28.12 952 10 16 0.00 0.00
4:56 pm 16:56 Sunny 91 32.8 68 20 47 47 VRB 3 6 28.10 952 10 16 0.00 0.00
5:56 pm 17:56 Sunny 86 30 74 23.3 67 67 Calm 28.13 953 10 16 0.00 0.00
6:56 pm 18:56 Sunny 84 28.9 74 23.3 72 72 Calm 28.13 953 10 16 0.00 0.00
7:56 pm 19:56 Sunny 79 26.1 74 23.3 85 85 Calm 28.16 954 10 16 0.00 0.00
8:56 pm 20:56 Cloudy 77 25 74 23.3 90 90 Calm 28.16 954 10 16 0.00 0.00
9:56 pm 21:56 Clear 76 24.4 73 22.8 91 91 Calm 28.17 954 10 16 0.00 0.00
10:56 pm 22:56 Clear 76 24.4 73 22.8 91 91 Calm 28.16 954 10 16 0.00 0.00
11:56 pm 23:56 Clear 75 23.9 72 22.2 90 90 Calm 28.13 953 10 16 0.00 0.00

Powered by AerisWeather